createdAt,value
2023-03-27T00:00:11.401Z,99789.69921875
2023-03-27T00:01:11.408Z,99792.09765625
2023-03-27T00:02:11.507Z,99793.5234375
2023-03-27T00:03:11.460Z,99796.80859375
2023-03-27T00:04:11.872Z,99797.8671875
2023-03-27T00:05:11.430Z,99802.265625
2023-03-27T00:06:13.753Z,99804.56640625
2023-03-27T00:07:11.408Z,99810.015625
2023-03-27T00:08:11.447Z,99809.265625
2023-03-27T00:09:11.786Z,99815.28515625
2023-03-27T00:10:11.824Z,99822.22265625
2023-03-27T00:11:11.387Z,99823.2421875
2023-03-27T00:12:11.793Z,99821.7109375
2023-03-27T00:13:11.430Z,99828.0625
2023-03-27T00:14:11.818Z,99827.8046875
2023-03-27T00:15:11.392Z,99823.71484375
2023-03-27T00:16:11.431Z,99829.109375
2023-03-27T00:17:13.734Z,99831.828125
2023-03-27T00:18:11.403Z,99830.15234375
2023-03-27T00:19:11.798Z,99833.34765625
2023-03-27T00:20:11.383Z,99836.59375
2023-03-27T00:21:11.397Z,99836.30859375
2023-03-27T00:22:11.400Z,99836.40625
2023-03-27T00:23:11.408Z,99843.11328125
2023-03-27T00:24:11.838Z,99839.65234375
2023-03-27T00:25:11.380Z,99839.9453125
2023-03-27T00:26:11.395Z,99839.1484375
2023-03-27T00:27:11.820Z,99845.2109375
2023-03-27T00:28:13.763Z,99846.9765625
2023-03-27T00:29:11.819Z,99849.46875
2023-03-27T00:30:11.421Z,99848.125
2023-03-27T00:31:11.499Z,99853.125
2023-03-27T00:32:11.398Z,99856.5390625
2023-03-27T00:33:11.366Z,99861.9375
2023-03-27T00:34:11.817Z,99858.0234375
2023-03-27T00:35:11.400Z,99871.83203125
2023-03-27T00:36:11.387Z,99874.23046875
2023-03-27T00:37:11.377Z,99871.99609375
2023-03-27T00:38:11.375Z,99877.0546875
2023-03-27T00:39:16.251Z,99877.859375
2023-03-27T00:40:12.334Z,99879.3984375
2023-03-27T00:41:11.457Z,99883.0625
2023-03-27T00:42:11.769Z,99883.1484375
2023-03-27T00:43:11.380Z,99884.45703125
2023-03-27T00:44:11.784Z,99883.99609375
2023-03-27T00:45:11.398Z,99886.17578125
2023-03-27T00:46:11.419Z,99889.37109375
2023-03-27T00:47:11.392Z,99891.4609375
2023-03-27T00:48:11.394Z,99892.640625
2023-03-27T00:49:11.808Z,99895.88671875
2023-03-27T00:50:13.763Z,99895.8828125
2023-03-27T00:51:11.407Z,99895.66015625
2023-03-27T00:52:11.395Z,99897.0234375
2023-03-27T00:53:11.416Z,99901.23046875
2023-03-27T00:54:11.810Z,99902.69140625
2023-03-27T00:55:11.383Z,99903.46875
2023-03-27T00:56:11.385Z,99906.96875
2023-03-27T00:57:11.889Z,99910.58203125
2023-03-27T00:58:11.398Z,99914.38671875
2023-03-27T00:59:11.831Z,99906.49609375
2023-03-27T01:00:11.393Z,99909.1171875
2023-03-27T01:01:13.757Z,99910.609375
2023-03-27T01:02:11.391Z,99914.91796875
2023-03-27T01:03:11.524Z,99913.8671875
2023-03-27T01:04:11.801Z,99908.5859375
2023-03-27T01:05:11.398Z,99915.19921875
2023-03-27T01:06:11.395Z,99918.5703125
2023-03-27T01:07:11.364Z,99921.171875
2023-03-27T01:08:11.377Z,99922.08984375
2023-03-27T01:09:20.283Z,99932.06640625
2023-03-27T01:10:11.371Z,99938.6484375
2023-03-27T01:11:11.399Z,99933.62890625
2023-03-27T01:12:16.245Z,99950.86328125
2023-03-27T01:13:11.421Z,99947.62109375
2023-03-27T01:14:11.813Z,99953.59765625
2023-03-27T01:15:11.381Z,99954.6015625
2023-03-27T01:16:11.427Z,99956.55859375
2023-03-27T01:17:11.440Z,99953.62109375
2023-03-27T01:18:11.392Z,99958.6015625
2023-03-27T01:19:11.811Z,99962.71484375
2023-03-27T01:20:11.397Z,99965.0625
2023-03-27T01:21:11.362Z,99967.41796875
2023-03-27T01:22:11.392Z,99970.7890625
2023-03-27T01:23:13.771Z,99975.42578125
2023-03-27T01:24:11.799Z,99976.921875
2023-03-27T01:25:11.388Z,99976.18359375
2023-03-27T01:26:11.378Z,99976.5390625
2023-03-27T01:27:11.795Z,99976.7578125
2023-03-27T01:28:11.377Z,99982.046875
2023-03-27T01:29:11.799Z,99984.2734375
2023-03-27T01:30:11.393Z,99985.55859375
2023-03-27T01:31:11.473Z,99990.84375
2023-03-27T01:32:11.391Z,99991.7109375
2023-03-27T01:33:11.499Z,99990.296875
2023-03-27T01:34:16.213Z,99992.19921875
2023-03-27T01:35:11.396Z,99996.79296875
2023-03-27T01:36:11.397Z,100002.51171875
2023-03-27T01:37:11.377Z,100007.55859375
2023-03-27T01:38:11.391Z,100007.99609375
2023-03-27T01:39:11.829Z,100011.51953125
2023-03-27T01:40:11.417Z,100009.94921875
2023-03-27T01:41:11.386Z,100022.15234375
2023-03-27T01:42:11.800Z,100025
2023-03-27T01:43:11.376Z,100025.8515625
2023-03-27T01:44:11.789Z,100023.94921875
2023-03-27T01:45:14.110Z,100030.99609375
2023-03-27T01:46:11.422Z,100031.95703125
2023-03-27T01:47:11.396Z,100037.83203125
2023-03-27T01:48:11.399Z,100038.140625
2023-03-27T01:49:11.798Z,100040.35546875
2023-03-27T01:50:11.418Z,100043.38671875
2023-03-27T01:51:11.393Z,100041.890625
2023-03-27T01:52:11.417Z,100048.9921875
2023-03-27T01:53:11.404Z,100050.60546875
2023-03-27T01:54:11.785Z,100048.71484375
2023-03-27T01:55:11.401Z,100043.73828125
2023-03-27T01:56:13.749Z,100052.390625
2023-03-27T01:57:11.826Z,100046.171875
2023-03-27T01:58:11.392Z,100054.40625
2023-03-27T01:59:11.804Z,100051.58984375
2023-03-27T02:00:17.329Z,100051.05859375
2023-03-27T02:01:11.435Z,100052.49609375
2023-03-27T02:02:11.416Z,100054.2265625
2023-03-27T02:03:11.385Z,100055.0390625
2023-03-27T02:04:11.804Z,100062.33203125
2023-03-27T02:05:11.444Z,100062.703125
2023-03-27T02:06:11.382Z,100058.09765625
2023-03-27T02:07:13.739Z,100064.5
2023-03-27T02:08:11.397Z,100068.83203125
2023-03-27T02:09:11.837Z,100072.01953125
2023-03-27T02:10:11.781Z,100068.42578125
2023-03-27T02:11:11.421Z,100069.3515625
2023-03-27T02:12:11.415Z,100075.0703125
2023-03-27T02:13:11.382Z,100076.86328125
2023-03-27T02:14:11.531Z,100070.7890625
2023-03-27T02:15:24.548Z,100075.5546875
2023-03-27T02:16:11.406Z,100075.0234375
2023-03-27T02:17:11.399Z,100079.03125
2023-03-27T02:18:13.750Z,100081.2578125
2023-03-27T02:19:11.817Z,100088.6328125
2023-03-27T02:20:11.375Z,100084.21875
2023-03-27T02:21:11.393Z,100084.21875
2023-03-27T02:22:11.387Z,100086.0625
2023-03-27T02:23:11.395Z,100082.5390625
2023-03-27T02:24:11.810Z,100086.96875
2023-03-27T02:25:11.392Z,100090.36328125
2023-03-27T02:26:11.400Z,100095.046875
2023-03-27T02:27:11.801Z,100098.890625
2023-03-27T02:28:11.401Z,100103.484375
2023-03-27T02:29:16.287Z,100107.0078125
2023-03-27T02:30:11.399Z,100108.94921875
2023-03-27T02:31:31.770Z,100108.625
2023-03-27T02:32:11.421Z,100112.55078125
2023-03-27T02:33:11.393Z,100118.5078125
2023-03-27T02:34:11.812Z,100109.85546875
2023-03-27T02:35:11.370Z,100120.59765625
2023-03-27T02:36:11.434Z,100124.30078125
2023-03-27T02:37:11.392Z,100122.875
2023-03-27T02:38:11.390Z,100125.46484375
2023-03-27T02:39:11.798Z,100133.71875
2023-03-27T02:40:14.737Z,100133.890625
2023-03-27T02:41:11.380Z,100133.7265625
2023-03-27T02:42:11.797Z,100139.98046875
2023-03-27T02:43:11.399Z,100140.390625
2023-03-27T02:44:11.820Z,100140.21875
2023-03-27T02:45:11.400Z,100145.546875
2023-03-27T02:46:11.439Z,100150.99609375
2023-03-27T02:47:11.381Z,100155.296875
2023-03-27T02:48:11.446Z,100154.609375
2023-03-27T02:49:11.806Z,100157.74609375
2023-03-27T02:50:11.377Z,100155.74609375
2023-03-27T02:51:13.732Z,100155.88671875
2023-03-27T02:52:11.403Z,100160.65234375
2023-03-27T02:53:11.385Z,100163.71484375
2023-03-27T02:54:11.835Z,100166.5625
2023-03-27T02:55:11.404Z,100163.4296875
2023-03-27T02:56:11.397Z,100176.890625
2023-03-27T02:57:11.548Z,100168.29296875
2023-03-27T02:58:11.414Z,100168.30078125
2023-03-27T02:59:11.820Z,100172.67578125
2023-03-27T03:00:11.388Z,100180.84765625
2023-03-27T03:01:11.406Z,100178.37890625
2023-03-27T03:02:13.772Z,100178.79296875
2023-03-27T03:03:11.447Z,100187.26953125
2023-03-27T03:04:11.825Z,100200.22265625
2023-03-27T03:05:11.398Z,100194.0078125
2023-03-27T03:06:11.528Z,100201.07421875
2023-03-27T03:07:11.407Z,100197.625
2023-03-27T03:08:11.401Z,100200.328125
2023-03-27T03:09:11.800Z,100205.59765625
2023-03-27T03:10:12.334Z,100206.8671875
2023-03-27T03:11:11.378Z,100212.83203125
2023-03-27T03:12:11.802Z,100210.4296875
2023-03-27T03:13:13.758Z,100204.8046875
2023-03-27T03:14:11.821Z,100210.921875
2023-03-27T03:15:11.396Z,100218.58203125
2023-03-27T03:16:11.484Z,100218.43359375
2023-03-27T03:17:11.396Z,100220.32421875
2023-03-27T03:18:11.405Z,100219.72265625
2023-03-27T03:19:11.817Z,100220.609375
2023-03-27T03:20:11.404Z,100223.87890625
2023-03-27T03:21:11.400Z,100226.8828125
2023-03-27T03:22:11.435Z,100229.94140625
2023-03-27T03:23:11.391Z,100230.71875
2023-03-27T03:24:16.288Z,100241.0078125
2023-03-27T03:25:11.401Z,100237.33203125
2023-03-27T03:26:11.404Z,100238.45703125
2023-03-27T03:27:11.819Z,100242.234375
2023-03-27T03:28:11.387Z,100244.0546875
2023-03-27T03:29:12.939Z,100242.42578125
2023-03-27T03:30:11.420Z,100250.1640625
2023-03-27T03:31:11.510Z,100249.1171875
2023-03-27T03:32:11.383Z,100251.5703125
2023-03-27T03:33:11.386Z,100254.84375
2023-03-27T03:34:11.816Z,100260.47265625
2023-03-27T03:35:13.781Z,100263.41015625
2023-03-27T03:36:11.397Z,100263.53125
2023-03-27T03:37:11.381Z,100264.74609375
2023-03-27T03:38:11.426Z,100267.97265625
2023-03-27T03:39:11.817Z,100271.7421875
2023-03-27T03:40:12.331Z,100270.22265625
2023-03-27T03:41:11.389Z,100266.71484375
2023-03-27T03:42:20.933Z,100275.51171875
2023-03-27T03:43:11.406Z,100277.12109375
2023-03-27T03:44:11.841Z,100275.9296875
2023-03-27T03:45:11.376Z,100279.59765625
2023-03-27T03:46:13.790Z,100283.04296875
2023-03-27T03:47:11.412Z,100286.515625
2023-03-27T03:48:11.384Z,100288.41796875
2023-03-27T03:49:11.823Z,100292.86328125
2023-03-27T03:50:11.402Z,100293.29296875
2023-03-27T03:51:11.408Z,100289.08203125
2023-03-27T03:52:11.405Z,100298.0390625
2023-03-27T03:53:11.384Z,100301.6796875
2023-03-27T03:54:11.816Z,100299.828125
2023-03-27T03:55:11.388Z,100303.640625
2023-03-27T03:56:11.399Z,100308.05859375
2023-03-27T03:57:16.303Z,100313.6640625
2023-03-27T03:58:11.379Z,100319.578125
2023-03-27T03:59:11.852Z,100315.375
2023-03-27T04:00:11.387Z,100321.875
2023-03-27T04:01:11.394Z,100325.40234375
2023-03-27T04:02:11.421Z,100320.65625
2023-03-27T04:03:11.478Z,100323.55859375
2023-03-27T04:04:11.813Z,100325.19921875
2023-03-27T04:05:11.399Z,100328.01953125
2023-03-27T04:06:11.372Z,100331.91796875
2023-03-27T04:07:11.378Z,100339.38671875
2023-03-27T04:08:13.751Z,100338.19140625
2023-03-27T04:09:11.818Z,100341.44921875
2023-03-27T04:10:12.319Z,100338.8125
2023-03-27T04:11:11.395Z,100342.57421875
2023-03-27T04:12:11.781Z,100342.12109375
2023-03-27T04:13:11.390Z,100349.44921875
2023-03-27T04:14:11.795Z,100351.328125
2023-03-27T04:15:11.367Z,100355.1953125
2023-03-27T04:16:11.394Z,100356.60546875
2023-03-27T04:17:11.425Z,100362.51171875
2023-03-27T04:18:11.424Z,100366.33984375
2023-03-27T04:19:14.151Z,100363.92578125
2023-03-27T04:20:11.386Z,100369.9921875
2023-03-27T04:21:11.378Z,100373.1015625
2023-03-27T04:22:11.397Z,100377.1171875
2023-03-27T04:23:11.465Z,100381.515625
2023-03-27T04:24:11.798Z,100380.5234375
2023-03-27T04:25:11.395Z,100393.88671875
2023-03-27T04:26:11.431Z,100392.45703125
2023-03-27T04:27:11.817Z,100401.12890625
2023-03-27T04:28:11.379Z,100399.5390625
2023-03-27T04:29:11.798Z,100398.63671875
2023-03-27T04:30:13.778Z,100397.25
2023-03-27T04:31:11.413Z,100396.97265625
2023-03-27T04:32:11.422Z,100399.0078125
2023-03-27T04:33:11.400Z,100401.6171875
2023-03-27T04:34:11.813Z,100403.97265625
2023-03-27T04:35:11.398Z,100405.83984375
2023-03-27T04:36:11.453Z,100404.6796875
2023-03-27T04:37:11.401Z,100406.1171875
2023-03-27T04:38:11.393Z,100410.39453125
2023-03-27T04:39:11.857Z,100418.4140625
2023-03-27T04:40:12.387Z,100416.3359375
2023-03-27T04:41:13.836Z,100422.0859375
2023-03-27T04:42:11.787Z,100428.234375
2023-03-27T04:43:11.400Z,100429.69921875
2023-03-27T04:44:11.469Z,100428.6171875
2023-03-27T04:45:11.404Z,100430.9921875
2023-03-27T04:46:11.385Z,100431.77734375
2023-03-27T04:47:11.482Z,100429.0546875
2023-03-27T04:48:11.477Z,100432.62109375
2023-03-27T04:49:11.813Z,100437.09375
2023-03-27T04:50:11.398Z,100436.93359375
2023-03-27T04:51:11.406Z,100442.73046875
2023-03-27T04:52:13.775Z,100444.046875
2023-03-27T04:53:11.383Z,100446.23828125
2023-03-27T04:54:11.817Z,100446.93359375
2023-03-27T04:55:11.373Z,100455.84765625
2023-03-27T04:56:11.396Z,100461.54296875
2023-03-27T04:57:11.869Z,100466.28515625
2023-03-27T04:58:11.408Z,100467.08984375
2023-03-27T04:59:11.816Z,100467.37890625
2023-03-27T05:00:11.388Z,100468.875
2023-03-27T05:01:11.483Z,100473.05078125
2023-03-27T05:02:11.401Z,100479.453125
2023-03-27T05:03:13.889Z,100475.5234375
2023-03-27T05:04:11.835Z,100479.65234375
2023-03-27T05:05:11.414Z,100481.56640625
2023-03-27T05:06:11.403Z,100477
2023-03-27T05:07:11.404Z,100476.89453125
2023-03-27T05:08:11.424Z,100480.96484375
2023-03-27T05:09:11.819Z,100484.9140625
2023-03-27T05:10:11.814Z,100483.390625
2023-03-27T05:11:11.399Z,100487.53125
2023-03-27T05:12:11.544Z,100488.82421875
2023-03-27T05:13:11.419Z,100489.0546875
2023-03-27T05:14:16.265Z,100488.58203125
2023-03-27T05:15:11.399Z,100493.93359375
2023-03-27T05:16:11.442Z,100496.62109375
2023-03-27T05:17:11.384Z,100497.18359375
2023-03-27T05:18:11.474Z,100497.12890625
2023-03-27T05:19:11.811Z,100499.1484375
2023-03-27T05:20:11.391Z,100502.11328125
2023-03-27T05:21:11.394Z,100504.02734375
2023-03-27T05:22:11.373Z,100509.42578125
2023-03-27T05:23:11.370Z,100510.31640625
2023-03-27T05:24:11.823Z,100502.1640625
2023-03-27T05:25:13.742Z,100507.31640625
2023-03-27T05:26:11.369Z,100513.8515625
2023-03-27T05:27:11.816Z,100519.609375
2023-03-27T05:28:11.420Z,100520.8515625
2023-03-27T05:29:11.790Z,100519.61328125
2023-03-27T05:30:11.382Z,100522.13671875
2023-03-27T05:31:11.424Z,100521.90625
2023-03-27T05:32:11.374Z,100524.3828125
2023-03-27T05:33:11.398Z,100531.79296875
2023-03-27T05:34:11.820Z,100526.27734375
2023-03-27T05:35:11.394Z,100538.27734375
2023-03-27T05:36:13.717Z,100535.64453125
2023-03-27T05:37:11.424Z,100533.29296875
2023-03-27T05:38:11.396Z,100536.1328125
2023-03-27T05:39:11.837Z,100539.65625
2023-03-27T05:40:12.335Z,100542.5078125
2023-03-27T05:41:11.397Z,100543.671875
2023-03-27T05:42:11.785Z,100545.0078125
2023-03-27T05:43:11.399Z,100547.8671875
2023-03-27T05:44:11.801Z,100545.3203125
2023-03-27T05:45:11.402Z,100547.0078125
2023-03-27T05:46:11.424Z,100546.69921875
2023-03-27T05:47:13.745Z,100546.578125
2023-03-27T05:48:11.473Z,100550.4296875
2023-03-27T05:49:11.799Z,100552.92578125
2023-03-27T05:50:11.379Z,100553.390625
2023-03-27T05:51:11.382Z,100555.03515625
2023-03-27T05:52:11.397Z,100557.62109375
2023-03-27T05:53:11.395Z,100556.78125
2023-03-27T05:54:11.819Z,100560.859375
2023-03-27T05:55:11.378Z,100556.19921875
2023-03-27T05:56:11.385Z,100556.10546875
2023-03-27T05:57:11.972Z,100557.91796875
2023-03-27T05:58:13.746Z,100563.875
2023-03-27T05:59:11.802Z,100564.234375
2023-03-27T06:00:11.397Z,100565.98046875
2023-03-27T06:01:11.403Z,100567.515625
2023-03-27T06:02:11.413Z,100574.83984375
2023-03-27T06:03:11.557Z,100571.44140625
2023-03-27T06:04:11.811Z,100574.76953125
2023-03-27T06:05:11.404Z,100572.2265625
2023-03-27T06:06:11.413Z,100577.8125
2023-03-27T06:07:11.401Z,100580.46484375
2023-03-27T06:08:11.440Z,100580.6328125
2023-03-27T06:09:16.301Z,100585.3203125
2023-03-27T06:10:13.517Z,100582.2578125
2023-03-27T06:11:11.386Z,100580.71484375
2023-03-27T06:12:11.812Z,100587.7421875
2023-03-27T06:13:11.398Z,100588.7578125
2023-03-27T06:14:11.819Z,100590.87890625
2023-03-27T06:15:11.405Z,100589.40625
2023-03-27T06:16:11.410Z,100594.8515625
2023-03-27T06:17:11.398Z,100596.05078125
2023-03-27T06:18:11.456Z,100596.2734375
2023-03-27T06:19:11.812Z,100592.9609375
2023-03-27T06:20:13.710Z,100597.0390625
2023-03-27T06:21:11.390Z,100594.3359375
2023-03-27T06:22:11.382Z,100591.8359375
2023-03-27T06:23:11.394Z,100592.5
2023-03-27T06:24:11.806Z,100593.6328125
2023-03-27T06:25:11.405Z,100590.890625
2023-03-27T06:26:11.398Z,100595.7578125
2023-03-27T06:27:11.830Z,100594.42578125
2023-03-27T06:28:11.397Z,100604.96484375
2023-03-27T06:29:11.829Z,100604.8359375
2023-03-27T06:30:11.402Z,100605.4453125
2023-03-27T06:31:13.796Z,100613.6796875
2023-03-27T06:32:11.415Z,100609.96484375
2023-03-27T06:33:11.414Z,100614.15234375
2023-03-27T06:34:11.802Z,100618.921875
2023-03-27T06:35:11.375Z,100622.94921875
2023-03-27T06:36:11.438Z,100617.5546875
2023-03-27T06:37:11.396Z,100619.09375
2023-03-27T06:38:11.395Z,100625.94140625
2023-03-27T06:39:11.817Z,100625.06640625
2023-03-27T06:40:12.329Z,100620.66015625
2023-03-27T06:41:11.402Z,100617.99609375
2023-03-27T06:42:13.873Z,100621.34765625
2023-03-27T06:43:11.400Z,100623.5078125
2023-03-27T06:44:11.442Z,100630.13671875
2023-03-27T06:45:11.401Z,100629.890625
2023-03-27T06:46:11.410Z,100629.96875
2023-03-27T06:47:11.426Z,100635.12890625
2023-03-27T06:48:16.249Z,100632.80859375
2023-03-27T06:49:11.812Z,100638.29296875
2023-03-27T06:50:11.381Z,100640.4609375
2023-03-27T06:51:11.399Z,100638.015625
2023-03-27T06:52:11.408Z,100641.3828125
2023-03-27T06:53:25.817Z,100653.00390625
2023-03-27T06:54:11.823Z,100656.51953125
2023-03-27T06:55:15.046Z,100656.14453125
2023-03-27T06:56:11.403Z,100663.13671875
2023-03-27T06:57:11.853Z,100667.6484375
2023-03-27T06:58:11.404Z,100667.984375
2023-03-27T06:59:11.808Z,100671.80859375
2023-03-27T07:00:11.407Z,100678.96875
2023-03-27T07:01:11.411Z,100681.2890625
2023-03-27T07:02:11.390Z,100684.4375
2023-03-27T07:03:11.426Z,100683.46484375
2023-03-27T07:04:13.767Z,100689.78125
2023-03-27T07:05:11.432Z,100690.5078125
2023-03-27T07:06:11.408Z,100691.97265625
2023-03-27T07:07:11.409Z,100691.15625
2023-03-27T07:08:22.351Z,100690.21484375
2023-03-27T07:09:11.507Z,100697.38671875
2023-03-27T07:10:12.681Z,100690.48828125
2023-03-27T07:11:12.609Z,100696.1328125
2023-03-27T07:12:11.534Z,100698.1015625
2023-03-27T07:13:11.811Z,100699.3984375
2023-03-27T07:14:11.804Z,100701.6171875
2023-03-27T07:15:13.739Z,100704.40625
2023-03-27T07:16:11.457Z,100702.12109375
2023-03-27T07:17:11.392Z,100707.13671875
2023-03-27T07:18:11.464Z,100707.41015625
2023-03-27T07:19:12.341Z,100713.49609375
2023-03-27T07:20:11.402Z,100714.78125
2023-03-27T07:21:11.393Z,100715.55859375
2023-03-27T07:22:11.394Z,100718.12109375
2023-03-27T07:23:11.405Z,100722.390625
2023-03-27T07:24:11.828Z,100724.546875
2023-03-27T07:25:11.390Z,100725.80859375
2023-03-27T07:26:13.706Z,100726.66015625
2023-03-27T07:27:11.880Z,100734.95703125
2023-03-27T07:28:11.407Z,100727.08203125
2023-03-27T07:29:11.795Z,100735.3984375
2023-03-27T07:30:11.406Z,100741.828125
2023-03-27T07:31:21.125Z,100735.4453125
2023-03-27T07:32:13.556Z,100734.53515625
2023-03-27T07:33:11.448Z,100738.609375
2023-03-27T07:34:11.935Z,100741.73046875
2023-03-27T07:35:11.366Z,100741.6015625
2023-03-27T07:36:11.401Z,100750.578125
2023-03-27T07:37:13.697Z,100750.7890625
2023-03-27T07:38:11.403Z,100746.30859375
2023-03-27T07:39:11.796Z,100748.9375
2023-03-27T07:40:11.374Z,100746.6484375
2023-03-27T07:41:11.386Z,100751.015625
2023-03-27T07:42:11.413Z,100746.66015625
2023-03-27T07:43:11.403Z,100751.3046875
2023-03-27T07:44:11.390Z,100749.09765625
2023-03-27T07:45:11.398Z,100754.94140625
2023-03-27T07:46:11.397Z,100750.51171875
2023-03-27T07:47:11.393Z,100749.41015625
2023-03-27T07:48:13.790Z,100751.796875
2023-03-27T07:49:11.519Z,100751.45703125
2023-03-27T07:50:11.985Z,100757.08984375
2023-03-27T07:51:14.202Z,100758.2109375
2023-03-27T07:52:11.411Z,100756.9140625
2023-03-27T07:53:33.513Z,100756.0546875
2023-03-27T07:54:11.786Z,100756.9609375
2023-03-27T07:55:11.378Z,100754.55859375
2023-03-27T07:56:11.409Z,100759.69140625
2023-03-27T07:57:11.927Z,100757.71875
2023-03-27T07:58:11.511Z,100758.6328125
2023-03-27T07:59:16.313Z,100760.45703125
2023-03-27T08:00:11.407Z,100759.82421875
2023-03-27T08:01:11.394Z,100759.33203125
2023-03-27T08:02:11.392Z,100760.25
2023-03-27T08:03:11.631Z,100757.6953125
2023-03-27T08:04:11.934Z,100761.15234375
2023-03-27T08:05:11.497Z,100761.81640625
2023-03-27T08:06:11.384Z,100763.2890625
2023-03-27T08:07:11.382Z,100762.609375
2023-03-27T08:08:11.367Z,100769.96875
2023-03-27T08:09:11.812Z,100771.08984375
2023-03-27T08:10:15.025Z,100771.46484375
2023-03-27T08:11:19.751Z,100771.31640625
2023-03-27T08:12:11.800Z,100773.3984375
2023-03-27T08:13:11.377Z,100770.109375
2023-03-27T08:14:11.812Z,100775.91796875
2023-03-27T08:15:11.385Z,100780.40625
2023-03-27T08:16:11.440Z,100772.3203125
2023-03-27T08:17:16.158Z,100777.98828125
2023-03-27T08:18:11.403Z,100776.140625
2023-03-27T08:19:11.788Z,100778.95703125
2023-03-27T08:20:11.397Z,100779.44140625
2023-03-27T08:21:13.772Z,100782.046875
2023-03-27T08:22:11.403Z,100783.31640625
2023-03-27T08:23:11.401Z,100780.2421875
2023-03-27T08:24:11.812Z,100784.7265625
2023-03-27T08:25:11.399Z,100783.49609375
2023-03-27T08:26:11.380Z,100782.1328125
2023-03-27T08:27:11.496Z,100780.83984375
2023-03-27T08:28:11.385Z,100781.72265625
2023-03-27T08:29:11.817Z,100785.63671875
2023-03-27T08:30:11.519Z,100793.01171875
2023-03-27T08:31:11.523Z,100789.85546875
2023-03-27T08:32:13.758Z,100782.57421875
2023-03-27T08:33:11.421Z,100791.54296875
2023-03-27T08:34:11.798Z,100793.375
2023-03-27T08:35:11.395Z,100796.37890625
2023-03-27T08:36:11.489Z,100797.94140625
2023-03-27T08:37:11.380Z,100793.53515625
2023-03-27T08:38:25.776Z,100799.1015625
2023-03-27T08:39:11.952Z,100803.26171875
2023-03-27T08:40:12.352Z,100800.26953125
2023-03-27T08:41:11.431Z,100801.5546875
2023-03-27T08:42:11.479Z,100812.1640625
2023-03-27T08:43:13.733Z,100806.33984375
2023-03-27T08:44:11.803Z,100802.7109375
2023-03-27T08:45:11.401Z,100805.4609375
2023-03-27T08:46:11.433Z,100808.30859375
2023-03-27T08:47:11.380Z,100807.125
2023-03-27T08:48:11.394Z,100815.40625
2023-03-27T08:49:11.806Z,100817.03125
2023-03-27T08:50:11.402Z,100813.70703125
2023-03-27T08:51:11.390Z,100810.53515625
2023-03-27T08:52:11.400Z,100815.02734375
2023-03-27T08:53:11.378Z,100819.02734375
2023-03-27T08:54:16.240Z,100811.8359375
2023-03-27T08:55:11.398Z,100814.078125
2023-03-27T08:56:11.399Z,100816.1640625
2023-03-27T08:57:11.852Z,100814.1796875
2023-03-27T08:58:11.405Z,100820.7109375
2023-03-27T08:59:11.819Z,100820.765625
2023-03-27T09:00:11.475Z,100819.96875
2023-03-27T09:01:11.404Z,100823.0546875
2023-03-27T09:02:11.632Z,100818.12109375
2023-03-27T09:03:11.473Z,100819.20703125
2023-03-27T09:04:11.800Z,100819.3203125
2023-03-27T09:05:13.781Z,100829.69140625
2023-03-27T09:06:11.386Z,100824.30859375
2023-03-27T09:07:11.408Z,100818.56640625
2023-03-27T09:08:11.403Z,100818.62109375
2023-03-27T09:09:11.843Z,100813.55859375
2023-03-27T09:10:12.336Z,100818.65625
2023-03-27T09:11:11.399Z,100819.12890625
2023-03-27T09:12:12.595Z,100820.41796875
2023-03-27T09:13:11.397Z,100820.66796875
2023-03-27T09:14:11.566Z,100818.5390625
2023-03-27T09:15:11.407Z,100821.25390625
2023-03-27T09:16:13.770Z,100825.70703125
2023-03-27T09:17:11.541Z,100825.43359375
2023-03-27T09:18:11.371Z,100830.6015625
2023-03-27T09:19:11.851Z,100828.984375
2023-03-27T09:20:11.395Z,100826.6875
2023-03-27T09:21:11.404Z,100828.71875
2023-03-27T09:22:11.397Z,100832.265625
2023-03-27T09:23:11.410Z,100833.58203125
2023-03-27T09:24:11.824Z,100830.0078125
2023-03-27T09:25:11.397Z,100833.42578125
2023-03-27T09:26:11.398Z,100833.765625
2023-03-27T09:27:13.774Z,100824.62109375
2023-03-27T09:28:11.419Z,100827.89453125
2023-03-27T09:29:11.492Z,100823.08984375
2023-03-27T09:30:11.380Z,100822.796875
2023-03-27T09:31:11.431Z,100820.20703125
2023-03-27T09:32:11.378Z,100816.4453125
2023-03-27T09:33:11.428Z,100817.21875
2023-03-27T09:34:11.829Z,100824.68359375
2023-03-27T09:35:11.373Z,100821.2109375
2023-03-27T09:36:11.464Z,100814.046875
2023-03-27T09:37:11.380Z,100814.44921875
2023-03-27T09:38:13.816Z,100817.28515625
2023-03-27T09:39:11.832Z,100817.8046875
2023-03-27T09:40:12.328Z,100821.578125
2023-03-27T09:41:11.368Z,100822.7421875
2023-03-27T09:42:11.416Z,100817.625
2023-03-27T09:43:11.827Z,100817.20703125
2023-03-27T09:44:11.843Z,100814.94140625
2023-03-27T09:45:11.408Z,100819.453125
2023-03-27T09:46:11.396Z,100819.63671875
2023-03-27T09:47:11.369Z,100817.1171875
2023-03-27T09:48:11.416Z,100815.4453125
2023-03-27T09:49:13.871Z,100817.90625
2023-03-27T09:50:11.402Z,100815.66796875
2023-03-27T09:51:11.383Z,100820.65625
2023-03-27T09:52:11.428Z,100819.109375
2023-03-27T09:53:11.380Z,100814.35546875
2023-03-27T09:54:11.482Z,100824.15625
2023-03-27T09:55:11.434Z,100829.5390625
2023-03-27T09:56:11.399Z,100821.4921875
2023-03-27T09:57:11.455Z,100824.1328125
2023-03-27T09:58:11.438Z,100825.69140625
2023-03-27T09:59:11.513Z,100820.1171875
2023-03-27T10:00:13.872Z,100827.80078125